This is the latest recevied weather packets stored in our database for station/object W5HKR. If no packets are shown the sender has not sent any weather packets the latest 10 day(s).
| Time | Temp. | Humidity | Pressure | Rain* | Wind** | Luminosity | Snow |
|---|---|---|---|---|---|---|---|
| 1777224811 | 27.22° C | 77% | 981.2 hPa | 0 mm | - | - | - |
| 1777224510 | 18.33° C | 91% | 990.6 hPa | 0 mm | - | - | - |
| 1777224211 | 18.33° C | 91% | 990.6 hPa | 0 mm | - | - | - |
| 1777224164 | 27.22° C | 77% | 981.4 hPa | 0 mm | - | - | - |
| 1777223911 | 18.33° C | 91% | 990.6 hPa | 0 mm | - | - | - |
| 1777223610 | 27.22° C | 78% | 981.4 hPa | 0 mm | - | - | - |
| 1777223313 | 27.22° C | 78% | 981.4 hPa | 0 mm | - | - | - |
| 1777223082 | 18.33° C | 91% | 990.6 hPa | 0 mm | - | - | - |
| 1777223010 | 18.33° C | 91% | 990.6 hPa | 0 mm | - | - | - |
| 1777222710 | 26.67° C | 79% | 981.1 hPa | 0 mm | - | - | - |
| 1777222411 | 18.33° C | 91% | 990.6 hPa | 0 mm | - | - | - |
| 1777222111 | 26.67° C | 80% | 981.4 hPa | 0 mm | - | - | - |
| 1777222003 | 26.67° C | 80% | 981 hPa | 0 mm | - | - | - |
| 1777221810 | 26.67° C | 79% | 981.2 hPa | 0 mm | - | - | - |
| 1777221510 | 26.67° C | 81% | 981.1 hPa | 0 mm | - | - | - |
| 1777221211 | 26.11° C | 82% | 981.4 hPa | 0 mm | - | - | - |
| 1777220910 | 18.33° C | 91% | 990.6 hPa | 0 mm | - | - | - |
| 1777220611 | 18.33° C | 91% | 990.6 hPa | 0 mm | - | - | - |
| 1777220312 | 25.56° C | 83% | 980.8 hPa | 0 mm | - | - | - |
| 1777220010 | 26.11° C | 83% | 981.2 hPa | 0 mm | - | - | - |
| 1777219843 | 26.11° C | 83% | 981.2 hPa | 0 mm | - | - | - |
| 1777219711 | 18.33° C | 91% | 990.6 hPa | 0 mm | - | - | - |
| 1777219410 | 26.11° C | 83% | 981.1 hPa | 0 mm | - | - | - |
| 1777219111 | 18.33° C | 91% | 990.6 hPa | 0 mm | - | - | - |
| 1777218811 | 18.33° C | 91% | 990.6 hPa | 0 mm | - | - | - |
* Rain latest hour (hover to see other rain measurements)
** Current wind speed in m/s (hover to see current wind gust speed)